sensor_id;sensor_type;location;lat;lon;timestamp;pressure;altitude;pressure_sealevel;temperature;humidity
61035;BME280;46916;40.564;-7.958;2023-04-02T00:01:37;98187.91;;;12.58;84.92
61035;BME280;46916;40.564;-7.958;2023-04-02T00:05:45;98196.38;;;12.62;84.75
61035;BME280;46916;40.564;-7.958;2023-04-02T00:07:52;98205.09;;;12.62;84.54
61035;BME280;46916;40.564;-7.958;2023-04-02T00:09:57;98204.13;;;12.63;84.43
61035;BME280;46916;40.564;-7.958;2023-04-02T00:12:11;98203.16;;;12.64;84.02
61035;BME280;46916;40.564;-7.958;2023-04-02T00:14:51;98194.69;;;12.61;84.21
61035;BME280;46916;40.564;-7.958;2023-04-02T00:16:45;98206.41;;;12.57;84.16
61035;BME280;46916;40.564;-7.958;2023-04-02T00:18:50;98205.56;;;12.56;84.03
61035;BME280;46916;40.564;-7.958;2023-04-02T00:21:15;98214.66;;;12.52;84.21
61035;BME280;46916;40.564;-7.958;2023-04-02T00:23:18;98205.09;;;12.51;84.22
61035;BME280;46916;40.564;-7.958;2023-04-02T00:25:19;98211.19;;;12.52;84.36
61035;BME280;46916;40.564;-7.958;2023-04-02T00:27:20;98199.84;;;12.51;84.38
61035;BME280;46916;40.564;-7.958;2023-04-02T00:29:21;98205.84;;;12.53;84.32
61035;BME280;46916;40.564;-7.958;2023-04-02T00:31:24;98204.88;;;12.54;84.54
61035;BME280;46916;40.564;-7.958;2023-04-02T00:33:27;98204.13;;;12.52;84.58
61035;BME280;46916;40.564;-7.958;2023-04-02T00:35:29;98203.31;;;12.52;84.58
61035;BME280;46916;40.564;-7.958;2023-04-02T00:37:31;98203.31;;;12.52;84.52
61035;BME280;46916;40.564;-7.958;2023-04-02T00:39:38;98206.06;;;12.50;84.90
61035;BME280;46916;40.564;-7.958;2023-04-02T00:41:41;98202.47;;;12.51;84.71
61035;BME280;46916;40.564;-7.958;2023-04-02T00:43:47;98204.97;;;12.53;84.72
61035;BME280;46916;40.564;-7.958;2023-04-02T00:45:53;98202.47;;;12.51;84.51
61035;BME280;46916;40.564;-7.958;2023-04-02T00:47:55;98204.03;;;12.54;84.17
61035;BME280;46916;40.564;-7.958;2023-04-02T00:52:18;98202.81;;;12.58;83.79
61035;BME280;46916;40.564;-7.958;2023-04-02T00:54:22;98206.28;;;12.58;83.49
61035;BME280;46916;40.564;-7.958;2023-04-02T00:56:29;98211.53;;;12.58;83.67
61035;BME280;46916;40.564;-7.958;2023-04-02T00:58:33;98207.94;;;12.59;83.78
61035;BME280;46916;40.564;-7.958;2023-04-02T01:00:35;98200.06;;;12.59;83.54
61035;BME280;46916;40.564;-7.958;2023-04-02T01:02:36;98204.50;;;12.59;83.35
61035;BME280;46916;40.564;-7.958;2023-04-02T01:04:40;98217.63;;;12.59;83.48
61035;BME280;46916;40.564;-7.958;2023-04-02T01:06:41;98216.91;;;12.57;83.64
61035;BME280;46916;40.564;-7.958;2023-04-02T01:11:03;98214.19;;;12.47;82.85
61035;BME280;46916;40.564;-7.958;2023-04-02T01:15:26;98202.75;;;12.37;83.35
61035;BME280;46916;40.564;-7.958;2023-04-02T01:22:36;98206.09;;;12.28;84.08
61035;BME280;46916;40.564;-7.958;2023-04-02T01:24:41;98215.53;;;12.30;84.01
61035;BME280;46916;40.564;-7.958;2023-04-02T01:26:53;98210.41;;;12.29;83.50
61035;BME280;46916;40.564;-7.958;2023-04-02T01:31:02;98207.06;;;12.27;83.50
61035;BME280;46916;40.564;-7.958;2023-04-02T01:33:04;98212.31;;;12.27;83.14
61035;BME280;46916;40.564;-7.958;2023-04-02T01:35:06;98209.69;;;12.27;83.25
61035;BME280;46916;40.564;-7.958;2023-04-02T01:41:51;98208.25;;;12.23;81.72
61035;BME280;46916;40.564;-7.958;2023-04-02T01:44:28;98205.88;;;12.20;81.81
61035;BME280;46916;40.564;-7.958;2023-04-02T01:46:34;98196.81;;;12.12;81.94
61035;BME280;46916;40.564;-7.958;2023-04-02T01:48:35;98201.47;;;12.09;82.16
61035;BME280;46916;40.564;-7.958;2023-04-02T01:50:37;98205.91;;;12.08;82.28
61035;BME280;46916;40.564;-7.958;2023-04-02T01:52:41;98209.72;;;12.04;81.91
61035;BME280;46916;40.564;-7.958;2023-04-02T01:54:45;98213.78;;;12.08;81.87
61035;BME280;46916;40.564;-7.958;2023-04-02T01:56:47;98206.47;;;12.12;81.09
61035;BME280;46916;40.564;-7.958;2023-04-02T01:58:49;98212.69;;;12.11;79.95
61035;BME280;46916;40.564;-7.958;2023-04-02T02:02:53;98204.47;;;11.93;80.37
61035;BME280;46916;40.564;-7.958;2023-04-02T02:04:54;98212.44;;;11.92;80.89
61035;BME280;46916;40.564;-7.958;2023-04-02T02:06:56;98204.56;;;11.92;80.39
61035;BME280;46916;40.564;-7.958;2023-04-02T02:09:03;98201.59;;;11.96;80.52
61035;BME280;46916;40.564;-7.958;2023-04-02T02:11:07;98206.50;;;12.01;80.42
61035;BME280;46916;40.564;-7.958;2023-04-02T02:13:15;98205.41;;;12.03;80.17
61035;BME280;46916;40.564;-7.958;2023-04-02T02:15:20;98212.34;;;12.04;79.81
61035;BME280;46916;40.564;-7.958;2023-04-02T02:17:31;98210.41;;;12.06;78.85
61035;BME280;46916;40.564;-7.958;2023-04-02T02:19:44;98202.53;;;11.95;79.03
61035;BME280;46916;40.564;-7.958;2023-04-02T02:21:52;98206.63;;;11.88;79.38
61035;BME280;46916;40.564;-7.958;2023-04-02T02:23:54;98212.94;;;11.85;79.86
61035;BME280;46916;40.564;-7.958;2023-04-02T02:25:55;98214.31;;;11.78;79.84
61035;BME280;46916;40.564;-7.958;2023-04-02T02:28:16;98210.25;;;11.74;80.29
61035;BME280;46916;40.564;-7.958;2023-04-02T02:30:29;98209.41;;;11.74;80.47
61035;BME280;46916;40.564;-7.958;2023-04-02T02:32:32;98208.59;;;11.73;80.44
61035;BME280;46916;40.564;-7.958;2023-04-02T02:34:41;98206.66;;;11.75;80.35
61035;BME280;46916;40.564;-7.958;2023-04-02T02:36:55;98207.16;;;11.80;80.00
61035;BME280;46916;40.564;-7.958;2023-04-02T02:39:23;98205.47;;;11.79;80.32
61035;BME280;46916;40.564;-7.958;2023-04-02T02:43:32;98199.66;;;11.76;79.86
61035;BME280;46916;40.564;-7.958;2023-04-02T02:45:35;98198.91;;;11.74;79.91
61035;BME280;46916;40.564;-7.958;2023-04-02T02:47:41;98194.63;;;11.73;80.06
61035;BME280;46916;40.564;-7.958;2023-04-02T02:49:56;98198.22;;;11.72;79.42
61035;BME280;46916;40.564;-7.958;2023-04-02T02:51:59;98194.63;;;11.61;79.51
61035;BME280;46916;40.564;-7.958;2023-04-02T02:54:08;98197.72;;;11.55;79.84
61035;BME280;46916;40.564;-7.958;2023-04-02T02:56:11;98199.13;;;11.48;79.96
61035;BME280;46916;40.564;-7.958;2023-04-02T02:58:17;98197.69;;;11.44;79.45
61035;BME280;46916;40.564;-7.958;2023-04-02T03:00:43;98191.59;;;11.32;79.83
61035;BME280;46916;40.564;-7.958;2023-04-02T03:02:45;98187.75;;;11.25;79.60
61035;BME280;46916;40.564;-7.958;2023-04-02T03:04:50;98190.03;;;11.19;80.27
61035;BME280;46916;40.564;-7.958;2023-04-02T03:06:53;98196.09;;;11.19;80.12
61035;BME280;46916;40.564;-7.958;2023-04-02T03:15:17;98197.56;;;10.99;78.87
61035;BME280;46916;40.564;-7.958;2023-04-02T03:17:46;98198.00;;;10.93;79.00
61035;BME280;46916;40.564;-7.958;2023-04-02T03:19:53;98203.59;;;10.88;78.67
61035;BME280;46916;40.564;-7.958;2023-04-02T03:22:03;98198.81;;;10.82;78.38
61035;BME280;46916;40.564;-7.958;2023-04-02T03:24:31;98210.56;;;10.77;78.41
61035;BME280;46916;40.564;-7.958;2023-04-02T03:26:41;98206.28;;;10.76;78.60
61035;BME280;46916;40.564;-7.958;2023-04-02T03:28:49;98208.28;;;10.72;78.24
61035;BME280;46916;40.564;-7.958;2023-04-02T03:30:57;98215.03;;;10.63;78.75
61035;BME280;46916;40.564;-7.958;2023-04-02T03:33:05;98210.00;;;10.60;79.38
61035;BME280;46916;40.564;-7.958;2023-04-02T03:44:18;98216.69;;;10.64;78.01
61035;BME280;46916;40.564;-7.958;2023-04-02T03:48:37;98216.59;;;10.66;77.99
61035;BME280;46916;40.564;-7.958;2023-04-02T03:50:46;98224.00;;;10.72;77.50
61035;BME280;46916;40.564;-7.958;2023-04-02T03:52:50;98217.50;;;10.78;77.31
61035;BME280;46916;40.564;-7.958;2023-04-02T03:54:56;98217.03;;;10.84;76.89
61035;BME280;46916;40.564;-7.958;2023-04-02T03:56:59;98222.06;;;10.87;76.76
61035;BME280;46916;40.564;-7.958;2023-04-02T04:01:32;98213.25;;;10.88;75.85
61035;BME280;46916;40.564;-7.958;2023-04-02T04:05:42;98208.63;;;10.91;75.42
61035;BME280;46916;40.564;-7.958;2023-04-02T04:07:50;98206.97;;;10.90;74.73
61035;BME280;46916;40.564;-7.958;2023-04-02T04:09:53;98221.22;;;10.86;74.93
61035;BME280;46916;40.564;-7.958;2023-04-02T04:14:12;98224.19;;;10.82;75.19
61035;BME280;46916;40.564;-7.958;2023-04-02T04:16:19;98216.22;;;10.83;74.60
61035;BME280;46916;40.564;-7.958;2023-04-02T04:18:34;98225.91;;;10.70;74.62
61035;BME280;46916;40.564;-7.958;2023-04-02T04:20:51;98213.78;;;10.56;74.77
61035;BME280;46916;40.564;-7.958;2023-04-02T04:23:13;98213.75;;;10.45;75.37
61035;BME280;46916;40.564;-7.958;2023-04-02T04:25:23;98211.75;;;10.36;75.42
61035;BME280;46916;40.564;-7.958;2023-04-02T04:27:56;98222.91;;;10.27;75.24
61035;BME280;46916;40.564;-7.958;2023-04-02T04:30:27;98218.38;;;10.16;75.11
61035;BME280;46916;40.564;-7.958;2023-04-02T04:32:36;98215.75;;;10.16;75.46
61035;BME280;46916;40.564;-7.958;2023-04-02T04:34:51;98214.72;;;10.18;74.65
61035;BME280;46916;40.564;-7.958;2023-04-02T04:37:03;98215.16;;;10.12;73.75
61035;BME280;46916;40.564;-7.958;2023-04-02T04:39:13;98208.69;;;10.05;74.42
61035;BME280;46916;40.564;-7.958;2023-04-02T04:41:35;98216.03;;;10.00;74.65
61035;BME280;46916;40.564;-7.958;2023-04-02T04:45:56;98209.88;;;9.88;73.96
61035;BME280;46916;40.564;-7.958;2023-04-02T04:48:03;98204.94;;;9.84;73.84
61035;BME280;46916;40.564;-7.958;2023-04-02T04:50:14;98208.09;;;9.76;73.73
61035;BME280;46916;40.564;-7.958;2023-04-02T04:52:27;98203.91;;;9.74;73.37
61035;BME280;46916;40.564;-7.958;2023-04-02T04:54:29;98213.94;;;9.67;73.36
61035;BME280;46916;40.564;-7.958;2023-04-02T04:56:31;98213.00;;;9.68;72.74
61035;BME280;46916;40.564;-7.958;2023-04-02T04:58:49;98205.56;;;9.75;72.74
61035;BME280;46916;40.564;-7.958;2023-04-02T05:01:04;98208.81;;;9.78;72.29
61035;BME280;46916;40.564;-7.958;2023-04-02T05:05:36;98209.13;;;9.86;71.82
61035;BME280;46916;40.564;-7.958;2023-04-02T05:07:45;98211.66;;;9.88;71.83
61035;BME280;46916;40.564;-7.958;2023-04-02T05:09:56;98217.78;;;9.87;71.89
61035;BME280;46916;40.564;-7.958;2023-04-02T05:12:07;98218.94;;;9.83;71.85
61035;BME280;46916;40.564;-7.958;2023-04-02T05:14:20;98219.06;;;9.81;71.74
61035;BME280;46916;40.564;-7.958;2023-04-02T05:16:30;98213.72;;;9.83;71.81
61035;BME280;46916;40.564;-7.958;2023-04-02T05:18:38;98214.47;;;9.85;71.34
61035;BME280;46916;40.564;-7.958;2023-04-02T05:20:51;98217.50;;;9.79;70.97
61035;BME280;46916;40.564;-7.958;2023-04-02T05:23:12;98225.34;;;9.66;70.80
61035;BME280;46916;40.564;-7.958;2023-04-02T05:25:21;98222.34;;;9.59;70.47
61035;BME280;46916;40.564;-7.958;2023-04-02T05:30:14;98224.72;;;9.50;67.86
61035;BME280;46916;40.564;-7.958;2023-04-02T05:32:24;98221.69;;;9.43;66.50
61035;BME280;46916;40.564;-7.958;2023-04-02T05:34:31;98229.28;;;9.33;66.04
61035;BME280;46916;40.564;-7.958;2023-04-02T05:36:33;98232.22;;;9.29;66.47
61035;BME280;46916;40.564;-7.958;2023-04-02T05:38:37;98230.56;;;9.28;66.16
61035;BME280;46916;40.564;-7.958;2023-04-02T05:40:40;98228.88;;;9.27;65.36
61035;BME280;46916;40.564;-7.958;2023-04-02T05:42:47;98226.34;;;9.25;64.86
61035;BME280;46916;40.564;-7.958;2023-04-02T05:44:57;98230.94;;;9.22;65.04
61035;BME280;46916;40.564;-7.958;2023-04-02T05:47:12;98210.47;;;9.28;64.90
61035;BME280;46916;40.564;-7.958;2023-04-02T05:49:21;98223.34;;;9.31;64.80
61035;BME280;46916;40.564;-7.958;2023-04-02T05:51:38;98228.47;;;9.33;64.98
61035;BME280;46916;40.564;-7.958;2023-04-02T05:53:48;98234.44;;;9.35;65.30
61035;BME280;46916;40.564;-7.958;2023-04-02T05:56:16;98233.56;;;9.34;65.80
61035;BME280;46916;40.564;-7.958;2023-04-02T05:58:26;98231.28;;;9.30;66.10
61035;BME280;46916;40.564;-7.958;2023-04-02T06:02:43;98234.59;;;9.06;66.68
61035;BME280;46916;40.564;-7.958;2023-04-02T06:04:57;98227.66;;;9.05;66.88
61035;BME280;46916;40.564;-7.958;2023-04-02T06:07:14;98237.22;;;9.06;66.96
61035;BME280;46916;40.564;-7.958;2023-04-02T06:11:31;98245.47;;;9.13;66.16
61035;BME280;46916;40.564;-7.958;2023-04-02T06:13:35;98243.50;;;9.16;65.89
61035;BME280;46916;40.564;-7.958;2023-04-02T06:15:36;98243.28;;;9.20;65.98
61035;BME280;46916;40.564;-7.958;2023-04-02T06:20:20;98249.16;;;9.23;65.73
61035;BME280;46916;40.564;-7.958;2023-04-02T06:22:31;98244.75;;;9.24;65.75
61035;BME280;46916;40.564;-7.958;2023-04-02T06:24:36;98249.03;;;9.25;65.91
61035;BME280;46916;40.564;-7.958;2023-04-02T06:26:42;98246.25;;;9.28;65.77
61035;BME280;46916;40.564;-7.958;2023-04-02T06:28:56;98253.88;;;9.31;65.74
61035;BME280;46916;40.564;-7.958;2023-04-02T06:31:07;98251.88;;;9.34;65.20
61035;BME280;46916;40.564;-7.958;2023-04-02T06:33:11;98258.50;;;9.40;65.08
61035;BME280;46916;40.564;-7.958;2023-04-02T06:35:16;98263.53;;;9.43;65.04
61035;BME280;46916;40.564;-7.958;2023-04-02T06:37:25;98266.84;;;9.45;64.92
61035;BME280;46916;40.564;-7.958;2023-04-02T06:39:34;98266.66;;;9.48;64.68
61035;BME280;46916;40.564;-7.958;2023-04-02T06:41:39;98261.22;;;9.51;64.33
61035;BME280;46916;40.564;-7.958;2023-04-02T06:44:15;98266.25;;;9.54;64.24
61035;BME280;46916;40.564;-7.958;2023-04-02T06:46:47;98266.88;;;9.58;63.80
61035;BME280;46916;40.564;-7.958;2023-04-02T06:48:56;98264.50;;;9.67;63.59
61035;BME280;46916;40.564;-7.958;2023-04-02T06:51:08;98274.31;;;9.77;62.98
61035;BME280;46916;40.564;-7.958;2023-04-02T06:53:24;98283.44;;;9.84;62.50
61035;BME280;46916;40.564;-7.958;2023-04-02T06:55:51;98286.97;;;9.96;62.23
61035;BME280;46916;40.564;-7.958;2023-04-02T06:57:59;98287.59;;;9.99;61.58
61035;BME280;46916;40.564;-7.958;2023-04-02T07:00:02;98290.44;;;10.09;61.16
61035;BME280;46916;40.564;-7.958;2023-04-02T07:02:15;98288.84;;;10.19;60.81
61035;BME280;46916;40.564;-7.958;2023-04-02T07:04:19;98290.31;;;10.23;60.07
61035;BME280;46916;40.564;-7.958;2023-04-02T07:06:22;98289.09;;;10.29;59.92
61035;BME280;46916;40.564;-7.958;2023-04-02T07:08:25;98283.25;;;10.25;58.75
61035;BME280;46916;40.564;-7.958;2023-04-02T07:10:26;98283.53;;;10.21;59.03
61035;BME280;46916;40.564;-7.958;2023-04-02T07:12:27;98285.41;;;10.18;58.56
61035;BME280;46916;40.564;-7.958;2023-04-02T07:14:29;98284.44;;;10.20;58.42
61035;BME280;46916;40.564;-7.958;2023-04-02T07:16:32;98288.25;;;10.28;58.73
61035;BME280;46916;40.564;-7.958;2023-04-02T07:18:34;98284.38;;;10.34;58.07
61035;BME280;46916;40.564;-7.958;2023-04-02T07:20:38;98278.59;;;10.41;58.62
61035;BME280;46916;40.564;-7.958;2023-04-02T07:22:44;98277.75;;;10.54;58.07
61035;BME280;46916;40.564;-7.958;2023-04-02T07:24:45;98285.09;;;10.73;57.86
61035;BME280;46916;40.564;-7.958;2023-04-02T07:26:46;98280.00;;;10.95;57.71
61035;BME280;46916;40.564;-7.958;2023-04-02T07:28:47;98285.59;;;11.14;56.99
61035;BME280;46916;40.564;-7.958;2023-04-02T07:30:48;98289.31;;;11.23;56.00
61035;BME280;46916;40.564;-7.958;2023-04-02T07:32:49;98289.69;;;11.30;56.59
61035;BME280;46916;40.564;-7.958;2023-04-02T07:34:50;98296.88;;;11.39;56.29
61035;BME280;46916;40.564;-7.958;2023-04-02T07:36:51;98287.75;;;11.56;56.63
61035;BME280;46916;40.564;-7.958;2023-04-02T07:38:52;98274.31;;;11.72;56.55
61035;BME280;46916;40.564;-7.958;2023-04-02T07:40:52;98282.97;;;11.85;56.20
61035;BME280;46916;40.564;-7.958;2023-04-02T07:42:53;98284.16;;;11.92;55.80
61035;BME280;46916;40.564;-7.958;2023-04-02T07:44:54;98294.41;;;11.95;55.69
61035;BME280;46916;40.564;-7.958;2023-04-02T07:46:55;98297.28;;;12.03;55.80
61035;BME280;46916;40.564;-7.958;2023-04-02T07:48:55;98295.41;;;12.05;55.25
61035;BME280;46916;40.564;-7.958;2023-04-02T07:50:56;98297.28;;;12.03;55.42
61035;BME280;46916;40.564;-7.958;2023-04-02T07:52:57;98301.72;;;12.03;55.19
61035;BME280;46916;40.564;-7.958;2023-04-02T07:54:57;98303.63;;;12.01;55.94
61035;BME280;46916;40.564;-7.958;2023-04-02T07:56:58;98306.84;;;12.04;56.46
61035;BME280;46916;40.564;-7.958;2023-04-02T07:58:59;98302.31;;;12.06;56.43
61035;BME280;46916;40.564;-7.958;2023-04-02T08:01:00;98305.66;;;12.08;56.20
61035;BME280;46916;40.564;-7.958;2023-04-02T08:03:03;98305.41;;;12.11;56.69
61035;BME280;46916;40.564;-7.958;2023-04-02T08:05:04;98311.03;;;12.18;56.03
61035;BME280;46916;40.564;-7.958;2023-04-02T08:07:06;98311.41;;;12.25;56.19
61035;BME280;46916;40.564;-7.958;2023-04-02T08:09:06;98308.53;;;12.39;55.17
61035;BME280;46916;40.564;-7.958;2023-04-02T08:11:08;98312.13;;;12.38;55.44
61035;BME280;46916;40.564;-7.958;2023-04-02T08:13:09;98317.63;;;12.46;54.58
61035;BME280;46916;40.564;-7.958;2023-04-02T08:15:13;98318.09;;;12.51;53.77
61035;BME280;46916;40.564;-7.958;2023-04-02T08:17:16;98317.63;;;12.46;54.29
61035;BME280;46916;40.564;-7.958;2023-04-02T08:19:17;98318.31;;;12.48;55.16
61035;BME280;46916;40.564;-7.958;2023-04-02T08:21:18;98315.22;;;12.54;53.37
61035;BME280;46916;40.564;-7.958;2023-04-02T08:23:19;98318.44;;;12.58;53.32
61035;BME280;46916;40.564;-7.958;2023-04-02T08:25:21;98314.50;;;12.63;52.69
61035;BME280;46916;40.564;-7.958;2023-04-02T08:27:23;98316.06;;;12.66;53.05
61035;BME280;46916;40.564;-7.958;2023-04-02T08:29:24;98319.88;;;12.62;52.46
61035;BME280;46916;40.564;-7.958;2023-04-02T08:31:25;98326.56;;;12.66;52.29
61035;BME280;46916;40.564;-7.958;2023-04-02T08:33:25;98329.31;;;12.53;52.75
61035;BME280;46916;40.564;-7.958;2023-04-02T08:35:26;98320.84;;;12.50;52.21
61035;BME280;46916;40.564;-7.958;2023-04-02T08:37:27;98322.50;;;12.51;52.67
61035;BME280;46916;40.564;-7.958;2023-04-02T08:39:28;98317.25;;;12.51;53.40
61035;BME280;46916;40.564;-7.958;2023-04-02T08:42:00;98320.25;;;12.57;52.97
61035;BME280;46916;40.564;-7.958;2023-04-02T08:44:36;98330.03;;;12.67;51.57
61035;BME280;46916;40.564;-7.958;2023-04-02T08:46:51;98322.75;;;12.70;52.04
61035;BME280;46916;40.564;-7.958;2023-04-02T08:48:56;98321.31;;;12.66;52.68
61035;BME280;46916;40.564;-7.958;2023-04-02T08:50:58;98326.19;;;12.71;53.31
61035;BME280;46916;40.564;-7.958;2023-04-02T08:53:02;98323.44;;;12.83;53.65
61035;BME280;46916;40.564;-7.958;2023-04-02T08:55:16;98329.00;;;13.01;51.90
61035;BME280;46916;40.564;-7.958;2023-04-02T08:59:39;98327.47;;;12.99;52.29
61035;BME280;46916;40.564;-7.958;2023-04-02T09:01:53;98336.19;;;13.10;52.53
61035;BME280;46916;40.564;-7.958;2023-04-02T09:03:57;98336.63;;;13.27;52.16
61035;BME280;46916;40.564;-7.958;2023-04-02T09:05:58;98342.56;;;13.40;50.41
61035;BME280;46916;40.564;-7.958;2023-04-02T09:08:02;98340.00;;;13.50;49.69
61035;BME280;46916;40.564;-7.958;2023-04-02T09:10:05;98337.97;;;13.53;48.81
61035;BME280;46916;40.564;-7.958;2023-04-02T09:12:17;98337.34;;;13.61;49.20
61035;BME280;46916;40.564;-7.958;2023-04-02T09:14:42;98338.03;;;13.63;48.84
61035;BME280;46916;40.564;-7.958;2023-04-02T09:16:47;98337.28;;;13.72;48.27
61035;BME280;46916;40.564;-7.958;2023-04-02T09:18:50;98337.38;;;13.71;48.42
61035;BME280;46916;40.564;-7.958;2023-04-02T09:20:52;98337.47;;;13.80;47.67
61035;BME280;46916;40.564;-7.958;2023-04-02T09:22:53;98337.34;;;13.82;46.26
61035;BME280;46916;40.564;-7.958;2023-04-02T09:24:57;98343.78;;;13.89;46.23
61035;BME280;46916;40.564;-7.958;2023-04-02T09:26:58;98341.84;;;13.91;47.00
61035;BME280;46916;40.564;-7.958;2023-04-02T09:31:21;98357.78;;;14.10;47.67
61035;BME280;46916;40.564;-7.958;2023-04-02T09:33:41;98345.38;;;14.22;43.88
61035;BME280;46916;40.564;-7.958;2023-04-02T09:42:34;98346.91;;;14.25;41.17
61035;BME280;46916;40.564;-7.958;2023-04-02T09:44:37;98349.00;;;14.31;41.45
61035;BME280;46916;40.564;-7.958;2023-04-02T09:46:50;98351.78;;;14.29;42.26
61035;BME280;46916;40.564;-7.958;2023-04-02T09:48:54;98349.44;;;14.36;41.67
61035;BME280;46916;40.564;-7.958;2023-04-02T09:51:17;98359.72;;;14.39;40.50
61035;BME280;46916;40.564;-7.958;2023-04-02T09:53:35;98354.31;;;14.41;41.29
61035;BME280;46916;40.564;-7.958;2023-04-02T09:55:36;98362.94;;;14.43;40.30
61035;BME280;46916;40.564;-7.958;2023-04-02T09:57:37;98369.13;;;14.53;40.15
61035;BME280;46916;40.564;-7.958;2023-04-02T09:59:38;98363.97;;;14.51;40.81
61035;BME280;46916;40.564;-7.958;2023-04-02T10:01:41;98368.75;;;14.57;39.80
61035;BME280;46916;40.564;-7.958;2023-04-02T10:03:43;98373.88;;;14.59;39.78
61035;BME280;46916;40.564;-7.958;2023-04-02T10:05:45;98368.63;;;14.69;38.67
61035;BME280;46916;40.564;-7.958;2023-04-02T10:07:48;98370.59;;;14.67;38.76
61035;BME280;46916;40.564;-7.958;2023-04-02T10:09:57;98360.53;;;14.60;39.43
61035;BME280;46916;40.564;-7.958;2023-04-02T10:11:59;98360.59;;;14.70;38.89
61035;BME280;46916;40.564;-7.958;2023-04-02T10:14:09;98360.72;;;14.69;38.53
61035;BME280;46916;40.564;-7.958;2023-04-02T10:20:27;98359.94;;;14.78;40.71
61035;BME280;46916;40.564;-7.958;2023-04-02T10:22:28;98364.00;;;14.92;38.98
61035;BME280;46916;40.564;-7.958;2023-04-02T10:24:29;98367.63;;;14.91;38.89
61035;BME280;46916;40.564;-7.958;2023-04-02T10:29:02;98370.66;;;14.86;38.26
61035;BME280;46916;40.564;-7.958;2023-04-02T10:31:17;98358.16;;;14.88;39.70
61035;BME280;46916;40.564;-7.958;2023-04-02T10:33:36;98369.41;;;14.90;39.11
61035;BME280;46916;40.564;-7.958;2023-04-02T10:35:56;98365.97;;;14.99;37.77
61035;BME280;46916;40.564;-7.958;2023-04-02T10:40:34;98363.44;;;14.98;39.54
61035;BME280;46916;40.564;-7.958;2023-04-02T10:42:43;98358.31;;;14.96;39.02
61035;BME280;46916;40.564;-7.958;2023-04-02T10:44:53;98360.28;;;14.94;38.38
61035;BME280;46916;40.564;-7.958;2023-04-02T10:47:35;98356.09;;;14.92;39.38
61035;BME280;46916;40.564;-7.958;2023-04-02T10:49:48;98352.91;;;14.98;40.46
61035;BME280;46916;40.564;-7.958;2023-04-02T10:56:11;98350.31;;;15.17;38.78
61035;BME280;46916;40.564;-7.958;2023-04-02T10:58:23;98355.19;;;15.22;38.09
61035;BME280;46916;40.564;-7.958;2023-04-02T11:00:27;98353.38;;;15.13;38.13
61035;BME280;46916;40.564;-7.958;2023-04-02T11:02:48;98350.72;;;15.13;39.57
61035;BME280;46916;40.564;-7.958;2023-04-02T11:04:51;98346.56;;;15.20;39.80
61035;BME280;46916;40.564;-7.958;2023-04-02T11:08:59;98351.88;;;15.39;37.73
61035;BME280;46916;40.564;-7.958;2023-04-02T11:11:30;98350.03;;;15.30;38.08
61035;BME280;46916;40.564;-7.958;2023-04-02T11:15:41;98350.34;;;15.36;38.29
61035;BME280;46916;40.564;-7.958;2023-04-02T11:17:43;98340.06;;;15.33;37.89
61035;BME280;46916;40.564;-7.958;2023-04-02T11:19:44;98340.63;;;15.37;38.50
61035;BME280;46916;40.564;-7.958;2023-04-02T11:23:57;98336.19;;;15.47;38.58
61035;BME280;46916;40.564;-7.958;2023-04-02T11:28:37;98343.84;;;15.60;37.31
61035;BME280;46916;40.564;-7.958;2023-04-02T11:30:38;98337.31;;;15.64;37.83
61035;BME280;46916;40.564;-7.958;2023-04-02T11:32:41;98333.56;;;15.67;37.08
61035;BME280;46916;40.564;-7.958;2023-04-02T11:38:50;98333.16;;;15.81;36.05
61035;BME280;46916;40.564;-7.958;2023-04-02T11:40:53;98333.81;;;15.83;35.31
61035;BME280;46916;40.564;-7.958;2023-04-02T11:50:02;98329.91;;;16.06;35.78
61035;BME280;46916;40.564;-7.958;2023-04-02T11:52:09;98322.91;;;16.15;35.87
61035;BME280;46916;40.564;-7.958;2023-04-02T11:54:25;98324.47;;;16.18;34.70
61035;BME280;46916;40.564;-7.958;2023-04-02T11:56:44;98325.72;;;16.14;34.72
61035;BME280;46916;40.564;-7.958;2023-04-02T12:12:52;98309.81;;;16.33;34.61
61035;BME280;46916;40.564;-7.958;2023-04-02T12:14:54;98308.13;;;16.32;34.99
61035;BME280;46916;40.564;-7.958;2023-04-02T12:16:56;98299.34;;;16.41;33.84
61035;BME280;46916;40.564;-7.958;2023-04-02T12:18:58;98298.78;;;16.38;33.84
61035;BME280;46916;40.564;-7.958;2023-04-02T12:20:59;98296.16;;;16.38;33.46
61035;BME280;46916;40.564;-7.958;2023-04-02T12:23:00;98293.34;;;16.39;34.44
61035;BME280;46916;40.564;-7.958;2023-04-02T12:25:05;98287.28;;;16.56;33.84
61035;BME280;46916;40.564;-7.958;2023-04-02T12:27:08;98282.16;;;16.55;34.72
61035;BME280;46916;40.564;-7.958;2023-04-02T12:29:15;98277.25;;;16.60;33.40
61035;BME280;46916;40.564;-7.958;2023-04-02T12:31:17;98277.69;;;16.55;32.90
61035;BME280;46916;40.564;-7.958;2023-04-02T12:33:31;98276.03;;;16.54;33.52
61035;BME280;46916;40.564;-7.958;2023-04-02T12:35:36;98268.66;;;16.58;32.89
61035;BME280;46916;40.564;-7.958;2023-04-02T12:37:37;98267.94;;;16.56;33.97
61035;BME280;46916;40.564;-7.958;2023-04-02T12:39:38;98264.84;;;16.60;33.89
61035;BME280;46916;40.564;-7.958;2023-04-02T12:41:39;98266.75;;;16.68;34.24
61035;BME280;46916;40.564;-7.958;2023-04-02T12:43:40;98267.88;;;16.75;34.10
61035;BME280;46916;40.564;-7.958;2023-04-02T12:45:40;98261.31;;;16.79;34.21
61035;BME280;46916;40.564;-7.958;2023-04-02T12:47:43;98257.84;;;16.79;34.64
61035;BME280;46916;40.564;-7.958;2023-04-02T12:49:45;98258.50;;;16.81;35.35
61035;BME280;46916;40.564;-7.958;2023-04-02T12:51:46;98251.66;;;16.88;33.89
61035;BME280;46916;40.564;-7.958;2023-04-02T12:53:51;98253.38;;;16.97;32.05
61035;BME280;46916;40.564;-7.958;2023-04-02T12:55:52;98249.25;;;17.13;30.55
61035;BME280;46916;40.564;-7.958;2023-04-02T12:57:55;98249.84;;;17.06;30.77
61035;BME280;46916;40.564;-7.958;2023-04-02T13:00:00;98250.16;;;17.03;31.92
61035;BME280;46916;40.564;-7.958;2023-04-02T13:02:20;98251.22;;;17.11;32.38
61035;BME280;46916;40.564;-7.958;2023-04-02T13:04:21;98241.31;;;17.13;31.97
61035;BME280;46916;40.564;-7.958;2023-04-02T13:06:23;98237.53;;;17.15;32.17
61035;BME280;46916;40.564;-7.958;2023-04-02T13:08:29;98231.47;;;17.23;31.71
61035;BME280;46916;40.564;-7.958;2023-04-02T13:10:32;98233.81;;;17.26;30.92